sensor_id;sensor_type;location;lat;lon;timestamp;temperature;humidity
12853;DHT22;6495;51.808;7.478;2023-06-26T00:00:49;24.60;90.90
12853;DHT22;6495;51.808;7.478;2023-06-26T00:03:18;24.60;90.90
12853;DHT22;6495;51.808;7.478;2023-06-26T00:05:46;24.60;90.90
12853;DHT22;6495;51.808;7.478;2023-06-26T00:08:15;24.60;90.90
12853;DHT22;6495;51.808;7.478;2023-06-26T00:10:43;24.60;90.90
12853;DHT22;6495;51.808;7.478;2023-06-26T00:13:11;24.60;90.90
12853;DHT22;6495;51.808;7.478;2023-06-26T00:15:40;24.60;91.00
12853;DHT22;6495;51.808;7.478;2023-06-26T00:18:08;24.50;91.00
12853;DHT22;6495;51.808;7.478;2023-06-26T00:20:37;24.50;91.10
12853;DHT22;6495;51.808;7.478;2023-06-26T00:23:06;24.40;91.20
12853;DHT22;6495;51.808;7.478;2023-06-26T00:25:34;24.40;91.40
12853;DHT22;6495;51.808;7.478;2023-06-26T00:28:03;24.40;91.50
12853;DHT22;6495;51.808;7.478;2023-06-26T00:30:31;24.30;91.60
12853;DHT22;6495;51.808;7.478;2023-06-26T00:33:00;24.30;91.70
12853;DHT22;6495;51.808;7.478;2023-06-26T00:35:30;24.20;91.80
12853;DHT22;6495;51.808;7.478;2023-06-26T00:38:00;24.10;91.90
12853;DHT22;6495;51.808;7.478;2023-06-26T00:40:28;24.00;92.00
12853;DHT22;6495;51.808;7.478;2023-06-26T00:42:57;24.00;92.20
12853;DHT22;6495;51.808;7.478;2023-06-26T00:45:25;23.90;92.40
12853;DHT22;6495;51.808;7.478;2023-06-26T00:48:10;23.80;92.40
12853;DHT22;6495;51.808;7.478;2023-06-26T00:50:40;23.80;92.50
12853;DHT22;6495;51.808;7.478;2023-06-26T00:53:11;23.70;92.60
12853;DHT22;6495;51.808;7.478;2023-06-26T00:55:39;23.60;92.70
12853;DHT22;6495;51.808;7.478;2023-06-26T00:58:09;23.60;92.90
12853;DHT22;6495;51.808;7.478;2023-06-26T01:00:37;23.50;93.00
12853;DHT22;6495;51.808;7.478;2023-06-26T01:03:06;23.50;93.10
12853;DHT22;6495;51.808;7.478;2023-06-26T01:05:35;23.40;93.20
12853;DHT22;6495;51.808;7.478;2023-06-26T01:08:05;23.30;93.20
12853;DHT22;6495;51.808;7.478;2023-06-26T01:10:34;23.30;93.30
12853;DHT22;6495;51.808;7.478;2023-06-26T01:13:04;23.20;93.40
12853;DHT22;6495;51.808;7.478;2023-06-26T01:15:32;23.20;93.60
12853;DHT22;6495;51.808;7.478;2023-06-26T01:18:04;23.10;93.60
12853;DHT22;6495;51.808;7.478;2023-06-26T01:20:36;23.10;93.80
12853;DHT22;6495;51.808;7.478;2023-06-26T01:23:15;23.00;93.80
12853;DHT22;6495;51.808;7.478;2023-06-26T01:26:05;23.00;94.00
12853;DHT22;6495;51.808;7.478;2023-06-26T01:28:41;23.00;94.20
12853;DHT22;6495;51.808;7.478;2023-06-26T01:31:11;22.90;94.10
12853;DHT22;6495;51.808;7.478;2023-06-26T01:33:40;22.90;94.30
12853;DHT22;6495;51.808;7.478;2023-06-26T01:36:09;22.90;94.40
12853;DHT22;6495;51.808;7.478;2023-06-26T01:38:38;22.80;94.50
12853;DHT22;6495;51.808;7.478;2023-06-26T01:41:08;22.70;94.50
12853;DHT22;6495;51.808;7.478;2023-06-26T01:43:43;22.70;94.70
12853;DHT22;6495;51.808;7.478;2023-06-26T01:46:29;22.70;94.80
12853;DHT22;6495;51.808;7.478;2023-06-26T01:49:09;22.60;94.90
12853;DHT22;6495;51.808;7.478;2023-06-26T01:51:51;22.60;95.00
12853;DHT22;6495;51.808;7.478;2023-06-26T01:54:27;22.60;95.20
12853;DHT22;6495;51.808;7.478;2023-06-26T01:57:02;22.50;95.10
12853;DHT22;6495;51.808;7.478;2023-06-26T01:59:33;22.50;95.20
12853;DHT22;6495;51.808;7.478;2023-06-26T02:02:02;22.40;95.30
12853;DHT22;6495;51.808;7.478;2023-06-26T02:04:37;22.40;95.40
12853;DHT22;6495;51.808;7.478;2023-06-26T02:07:05;22.40;95.30
12853;DHT22;6495;51.808;7.478;2023-06-26T02:09:36;22.30;95.40
12853;DHT22;6495;51.808;7.478;2023-06-26T02:12:07;22.30;95.50
12853;DHT22;6495;51.808;7.478;2023-06-26T02:14:35;22.30;95.50
12853;DHT22;6495;51.808;7.478;2023-06-26T02:17:04;22.30;95.60
12853;DHT22;6495;51.808;7.478;2023-06-26T02:19:32;22.20;95.60
12853;DHT22;6495;51.808;7.478;2023-06-26T02:22:00;22.20;95.70
12853;DHT22;6495;51.808;7.478;2023-06-26T02:24:28;22.20;95.70
12853;DHT22;6495;51.808;7.478;2023-06-26T02:26:57;22.10;95.70
12853;DHT22;6495;51.808;7.478;2023-06-26T02:29:27;22.10;95.70
12853;DHT22;6495;51.808;7.478;2023-06-26T02:31:55;22.10;95.70
12853;DHT22;6495;51.808;7.478;2023-06-26T02:34:23;22.10;95.80
12853;DHT22;6495;51.808;7.478;2023-06-26T02:36:53;22.10;95.80
12853;DHT22;6495;51.808;7.478;2023-06-26T02:39:22;22.10;95.80
12853;DHT22;6495;51.808;7.478;2023-06-26T02:41:50;22.10;95.80
12853;DHT22;6495;51.808;7.478;2023-06-26T02:44:21;22.10;95.70
12853;DHT22;6495;51.808;7.478;2023-06-26T02:46:50;22.10;95.80
12853;DHT22;6495;51.808;7.478;2023-06-26T02:49:18;22.10;95.90
12853;DHT22;6495;51.808;7.478;2023-06-26T02:51:49;22.10;96.00
12853;DHT22;6495;51.808;7.478;2023-06-26T02:54:26;22.10;95.90
12853;DHT22;6495;51.808;7.478;2023-06-26T02:57:00;22.00;96.00
12853;DHT22;6495;51.808;7.478;2023-06-26T02:59:31;22.00;96.00
12853;DHT22;6495;51.808;7.478;2023-06-26T03:02:00;22.00;96.20
12853;DHT22;6495;51.808;7.478;2023-06-26T03:04:34;22.00;96.20
12853;DHT22;6495;51.808;7.478;2023-06-26T03:07:05;21.90;96.20
12853;DHT22;6495;51.808;7.478;2023-06-26T03:09:33;21.90;96.20
12853;DHT22;6495;51.808;7.478;2023-06-26T03:12:02;21.90;96.30
12853;DHT22;6495;51.808;7.478;2023-06-26T03:14:32;21.80;96.40
12853;DHT22;6495;51.808;7.478;2023-06-26T03:17:02;21.80;96.40
12853;DHT22;6495;51.808;7.478;2023-06-26T03:19:32;21.80;96.40
12853;DHT22;6495;51.808;7.478;2023-06-26T03:22:26;21.80;96.40
12853;DHT22;6495;51.808;7.478;2023-06-26T03:24:54;21.80;96.40
12853;DHT22;6495;51.808;7.478;2023-06-26T03:27:23;21.70;96.30
12853;DHT22;6495;51.808;7.478;2023-06-26T03:29:52;21.70;96.30
12853;DHT22;6495;51.808;7.478;2023-06-26T03:32:23;21.70;96.30
12853;DHT22;6495;51.808;7.478;2023-06-26T03:34:52;21.70;96.30
12853;DHT22;6495;51.808;7.478;2023-06-26T03:37:20;21.70;96.20
12853;DHT22;6495;51.808;7.478;2023-06-26T03:39:49;21.70;96.30
12853;DHT22;6495;51.808;7.478;2023-06-26T03:42:18;21.70;96.20
12853;DHT22;6495;51.808;7.478;2023-06-26T03:44:46;21.70;96.20
12853;DHT22;6495;51.808;7.478;2023-06-26T03:47:16;21.70;96.30
12853;DHT22;6495;51.808;7.478;2023-06-26T03:49:46;21.70;96.20
12853;DHT22;6495;51.808;7.478;2023-06-26T03:52:14;21.70;96.20
12853;DHT22;6495;51.808;7.478;2023-06-26T03:54:42;21.70;96.30
12853;DHT22;6495;51.808;7.478;2023-06-26T03:57:11;21.70;96.40
12853;DHT22;6495;51.808;7.478;2023-06-26T03:59:41;21.70;96.40
12853;DHT22;6495;51.808;7.478;2023-06-26T04:02:09;21.60;96.30
12853;DHT22;6495;51.808;7.478;2023-06-26T04:04:42;21.60;96.40
12853;DHT22;6495;51.808;7.478;2023-06-26T04:07:13;21.60;96.50
12853;DHT22;6495;51.808;7.478;2023-06-26T04:09:41;21.60;96.50
12853;DHT22;6495;51.808;7.478;2023-06-26T04:12:10;21.60;96.60
12853;DHT22;6495;51.808;7.478;2023-06-26T04:14:38;21.60;96.70
12853;DHT22;6495;51.808;7.478;2023-06-26T04:17:06;21.60;96.80
12853;DHT22;6495;51.808;7.478;2023-06-26T04:19:34;21.60;96.90
12853;DHT22;6495;51.808;7.478;2023-06-26T04:22:03;21.60;96.90
12853;DHT22;6495;51.808;7.478;2023-06-26T04:24:33;21.60;97.00
12853;DHT22;6495;51.808;7.478;2023-06-26T04:27:01;21.60;97.00
12853;DHT22;6495;51.808;7.478;2023-06-26T04:29:30;21.60;97.10
12853;DHT22;6495;51.808;7.478;2023-06-26T04:31:58;21.60;97.00
12853;DHT22;6495;51.808;7.478;2023-06-26T04:34:28;21.60;96.90
12853;DHT22;6495;51.808;7.478;2023-06-26T04:37:02;21.70;97.00
12853;DHT22;6495;51.808;7.478;2023-06-26T04:39:32;21.70;97.00
12853;DHT22;6495;51.808;7.478;2023-06-26T04:42:03;21.80;97.10
12853;DHT22;6495;51.808;7.478;2023-06-26T04:44:32;21.80;97.20
12853;DHT22;6495;51.808;7.478;2023-06-26T04:47:00;21.80;97.40
12853;DHT22;6495;51.808;7.478;2023-06-26T04:49:28;21.80;97.30
12853;DHT22;6495;51.808;7.478;2023-06-26T04:51:56;21.90;97.40
12853;DHT22;6495;51.808;7.478;2023-06-26T04:54:27;21.90;97.50
12853;DHT22;6495;51.808;7.478;2023-06-26T04:56:56;21.90;97.80
12853;DHT22;6495;51.808;7.478;2023-06-26T04:59:26;21.90;97.80
12853;DHT22;6495;51.808;7.478;2023-06-26T05:01:54;22.00;98.00
12853;DHT22;6495;51.808;7.478;2023-06-26T05:04:23;22.00;98.20
12853;DHT22;6495;51.808;7.478;2023-06-26T05:06:51;22.00;98.20
12853;DHT22;6495;51.808;7.478;2023-06-26T05:09:20;22.00;98.50
12853;DHT22;6495;51.808;7.478;2023-06-26T05:11:48;22.10;98.50
12853;DHT22;6495;51.808;7.478;2023-06-26T05:14:18;22.10;98.50
12853;DHT22;6495;51.808;7.478;2023-06-26T05:16:50;22.10;98.60
12853;DHT22;6495;51.808;7.478;2023-06-26T05:19:18;22.10;98.70
12853;DHT22;6495;51.808;7.478;2023-06-26T05:21:47;22.20;98.80
12853;DHT22;6495;51.808;7.478;2023-06-26T05:24:17;22.20;98.90
12853;DHT22;6495;51.808;7.478;2023-06-26T05:26:50;22.20;99.00
12853;DHT22;6495;51.808;7.478;2023-06-26T05:29:21;22.20;98.90
12853;DHT22;6495;51.808;7.478;2023-06-26T05:31:52;22.20;98.90
12853;DHT22;6495;51.808;7.478;2023-06-26T05:34:24;22.30;99.10
12853;DHT22;6495;51.808;7.478;2023-06-26T05:36:57;22.30;99.20
12853;DHT22;6495;51.808;7.478;2023-06-26T05:39:27;22.40;99.30
12853;DHT22;6495;51.808;7.478;2023-06-26T05:41:56;22.40;99.40
12853;DHT22;6495;51.808;7.478;2023-06-26T05:44:26;22.50;99.50
12853;DHT22;6495;51.808;7.478;2023-06-26T05:46:55;22.50;99.50
12853;DHT22;6495;51.808;7.478;2023-06-26T05:49:23;22.50;99.70
12853;DHT22;6495;51.808;7.478;2023-06-26T05:51:52;22.60;99.90
12853;DHT22;6495;51.808;7.478;2023-06-26T05:54:22;22.60;99.80
12853;DHT22;6495;51.808;7.478;2023-06-26T05:56:56;22.70;99.90
12853;DHT22;6495;51.808;7.478;2023-06-26T05:59:29;22.70;99.90
12853;DHT22;6495;51.808;7.478;2023-06-26T06:01:59;22.70;99.90
12853;DHT22;6495;51.808;7.478;2023-06-26T06:04:28;22.80;99.90
12853;DHT22;6495;51.808;7.478;2023-06-26T06:06:56;22.80;99.90
12853;DHT22;6495;51.808;7.478;2023-06-26T06:09:24;22.90;99.90
12853;DHT22;6495;51.808;7.478;2023-06-26T06:11:53;23.00;99.90
12853;DHT22;6495;51.808;7.478;2023-06-26T06:14:21;23.00;99.90
12853;DHT22;6495;51.808;7.478;2023-06-26T06:16:51;23.00;99.90
12853;DHT22;6495;51.808;7.478;2023-06-26T06:19:19;23.10;99.90
12853;DHT22;6495;51.808;7.478;2023-06-26T06:21:47;23.20;99.90
12853;DHT22;6495;51.808;7.478;2023-06-26T06:24:16;23.20;99.90
12853;DHT22;6495;51.808;7.478;2023-06-26T06:26:44;23.20;99.90
12853;DHT22;6495;51.808;7.478;2023-06-26T06:29:13;23.30;99.90
12853;DHT22;6495;51.808;7.478;2023-06-26T06:31:41;23.30;99.90
12853;DHT22;6495;51.808;7.478;2023-06-26T06:34:11;23.30;99.90
12853;DHT22;6495;51.808;7.478;2023-06-26T06:36:40;23.30;99.90
12853;DHT22;6495;51.808;7.478;2023-06-26T06:39:08;23.30;99.90
12853;DHT22;6495;51.808;7.478;2023-06-26T06:41:36;23.30;99.90
12853;DHT22;6495;51.808;7.478;2023-06-26T06:44:06;23.30;99.90
12853;DHT22;6495;51.808;7.478;2023-06-26T06:46:34;23.30;99.90
12853;DHT22;6495;51.808;7.478;2023-06-26T06:49:03;23.30;99.90
12853;DHT22;6495;51.808;7.478;2023-06-26T06:51:32;23.30;99.90
12853;DHT22;6495;51.808;7.478;2023-06-26T06:54:01;23.30;99.90
12853;DHT22;6495;51.808;7.478;2023-06-26T06:56:29;23.30;99.90
12853;DHT22;6495;51.808;7.478;2023-06-26T06:58:58;23.30;99.90
12853;DHT22;6495;51.808;7.478;2023-06-26T07:01:26;23.30;99.90
12853;DHT22;6495;51.808;7.478;2023-06-26T07:03:55;23.30;99.90
12853;DHT22;6495;51.808;7.478;2023-06-26T07:06:24;23.40;99.90
12853;DHT22;6495;51.808;7.478;2023-06-26T07:08:54;23.40;99.90
12853;DHT22;6495;51.808;7.478;2023-06-26T07:11:23;23.50;99.90
12853;DHT22;6495;51.808;7.478;2023-06-26T07:13:51;23.50;99.90
12853;DHT22;6495;51.808;7.478;2023-06-26T07:16:19;23.60;99.90
12853;DHT22;6495;51.808;7.478;2023-06-26T07:18:48;23.60;99.90
12853;DHT22;6495;51.808;7.478;2023-06-26T07:21:17;23.60;99.90
12853;DHT22;6495;51.808;7.478;2023-06-26T07:23:46;23.70;99.90
12853;DHT22;6495;51.808;7.478;2023-06-26T07:26:16;23.70;99.90
12853;DHT22;6495;51.808;7.478;2023-06-26T07:28:55;23.80;99.90
12853;DHT22;6495;51.808;7.478;2023-06-26T07:31:23;23.90;99.90
12853;DHT22;6495;51.808;7.478;2023-06-26T07:33:52;23.90;99.90
12853;DHT22;6495;51.808;7.478;2023-06-26T07:36:23;23.90;99.90
12853;DHT22;6495;51.808;7.478;2023-06-26T07:38:51;24.00;99.90
12853;DHT22;6495;51.808;7.478;2023-06-26T07:41:21;24.10;99.90
12853;DHT22;6495;51.808;7.478;2023-06-26T07:43:49;24.30;99.90
12853;DHT22;6495;51.808;7.478;2023-06-26T07:46:18;24.30;99.90
12853;DHT22;6495;51.808;7.478;2023-06-26T07:48:46;24.40;99.90
12853;DHT22;6495;51.808;7.478;2023-06-26T07:51:15;24.40;99.90
12853;DHT22;6495;51.808;7.478;2023-06-26T07:53:44;24.50;99.90
12853;DHT22;6495;51.808;7.478;2023-06-26T07:56:12;24.50;99.90
12853;DHT22;6495;51.808;7.478;2023-06-26T07:58:42;24.60;99.90
12853;DHT22;6495;51.808;7.478;2023-06-26T08:01:11;24.70;99.90
12853;DHT22;6495;51.808;7.478;2023-06-26T08:03:40;24.80;99.90
12853;DHT22;6495;51.808;7.478;2023-06-26T08:06:09;24.90;99.90
12853;DHT22;6495;51.808;7.478;2023-06-26T08:08:38;25.00;99.90
12853;DHT22;6495;51.808;7.478;2023-06-26T08:11:07;25.00;99.90
12853;DHT22;6495;51.808;7.478;2023-06-26T08:13:35;25.10;99.90
12853;DHT22;6495;51.808;7.478;2023-06-26T08:16:06;25.10;99.90
12853;DHT22;6495;51.808;7.478;2023-06-26T08:18:37;25.10;99.90
12853;DHT22;6495;51.808;7.478;2023-06-26T08:21:05;25.10;99.90
12853;DHT22;6495;51.808;7.478;2023-06-26T08:23:36;25.10;99.90
12853;DHT22;6495;51.808;7.478;2023-06-26T08:26:05;25.10;99.90
12853;DHT22;6495;51.808;7.478;2023-06-26T08:28:33;25.20;99.90
12853;DHT22;6495;51.808;7.478;2023-06-26T08:31:02;25.20;99.90
12853;DHT22;6495;51.808;7.478;2023-06-26T08:33:32;25.20;99.90
12853;DHT22;6495;51.808;7.478;2023-06-26T08:36:00;25.30;99.90
12853;DHT22;6495;51.808;7.478;2023-06-26T08:38:29;25.30;99.90
12853;DHT22;6495;51.808;7.478;2023-06-26T08:40:58;25.40;99.90
12853;DHT22;6495;51.808;7.478;2023-06-26T08:43:26;25.40;99.90
12853;DHT22;6495;51.808;7.478;2023-06-26T08:45:55;25.50;99.90
12853;DHT22;6495;51.808;7.478;2023-06-26T08:48:24;25.50;99.90
12853;DHT22;6495;51.808;7.478;2023-06-26T08:50:55;25.50;99.90
12853;DHT22;6495;51.808;7.478;2023-06-26T08:53:29;25.50;99.90
12853;DHT22;6495;51.808;7.478;2023-06-26T08:56:03;25.50;99.90
12853;DHT22;6495;51.808;7.478;2023-06-26T08:58:33;25.50;99.90
12853;DHT22;6495;51.808;7.478;2023-06-26T09:01:07;25.50;99.90
12853;DHT22;6495;51.808;7.478;2023-06-26T09:03:35;25.50;99.90
12853;DHT22;6495;51.808;7.478;2023-06-26T09:06:06;25.50;99.90
12853;DHT22;6495;51.808;7.478;2023-06-26T09:08:34;25.60;99.90
12853;DHT22;6495;51.808;7.478;2023-06-26T09:11:03;25.70;99.90
12853;DHT22;6495;51.808;7.478;2023-06-26T09:13:31;25.70;99.90
12853;DHT22;6495;51.808;7.478;2023-06-26T09:16:04;25.80;99.90
12853;DHT22;6495;51.808;7.478;2023-06-26T09:18:35;25.80;99.90
12853;DHT22;6495;51.808;7.478;2023-06-26T09:21:08;25.70;99.70
12853;DHT22;6495;51.808;7.478;2023-06-26T09:23:39;25.60;99.10
12853;DHT22;6495;51.808;7.478;2023-06-26T09:26:08;25.60;99.00
12853;DHT22;6495;51.808;7.478;2023-06-26T09:28:37;25.50;99.00
12853;DHT22;6495;51.808;7.478;2023-06-26T09:31:07;25.50;99.20
12853;DHT22;6495;51.808;7.478;2023-06-26T09:33:38;25.40;99.10
12853;DHT22;6495;51.808;7.478;2023-06-26T09:36:19;25.50;99.10
12853;DHT22;6495;51.808;7.478;2023-06-26T09:38:49;25.50;98.90
12853;DHT22;6495;51.808;7.478;2023-06-26T09:41:18;25.50;98.80
12853;DHT22;6495;51.808;7.478;2023-06-26T09:43:47;25.50;98.80
12853;DHT22;6495;51.808;7.478;2023-06-26T09:46:17;25.50;98.80
12853;DHT22;6495;51.808;7.478;2023-06-26T09:48:45;25.50;98.60
12853;DHT22;6495;51.808;7.478;2023-06-26T09:51:16;25.50;98.50
12853;DHT22;6495;51.808;7.478;2023-06-26T09:53:50;25.60;98.60
12853;DHT22;6495;51.808;7.478;2023-06-26T09:56:18;25.60;98.40
12853;DHT22;6495;51.808;7.478;2023-06-26T09:58:49;25.60;98.10
12853;DHT22;6495;51.808;7.478;2023-06-26T10:01:19;25.60;98.00
12853;DHT22;6495;51.808;7.478;2023-06-26T10:03:47;25.60;97.90
12853;DHT22;6495;51.808;7.478;2023-06-26T10:06:20;25.70;97.60
12853;DHT22;6495;51.808;7.478;2023-06-26T10:08:52;25.80;97.70
12853;DHT22;6495;51.808;7.478;2023-06-26T10:11:22;25.80;97.60
12853;DHT22;6495;51.808;7.478;2023-06-26T10:13:55;26.00;97.70
12853;DHT22;6495;51.808;7.478;2023-06-26T10:16:43;26.10;97.60
12853;DHT22;6495;51.808;7.478;2023-06-26T10:19:18;26.10;96.80
12853;DHT22;6495;51.808;7.478;2023-06-26T10:21:53;26.10;96.50
12853;DHT22;6495;51.808;7.478;2023-06-26T10:24:23;26.10;96.20
12853;DHT22;6495;51.808;7.478;2023-06-26T10:27:17;26.10;96.20
12853;DHT22;6495;51.808;7.478;2023-06-26T10:29:56;26.10;96.00
12853;DHT22;6495;51.808;7.478;2023-06-26T10:32:54;26.10;95.90
12853;DHT22;6495;51.808;7.478;2023-06-26T10:35:32;26.10;95.70
12853;DHT22;6495;51.808;7.478;2023-06-26T10:38:08;26.10;95.20
12853;DHT22;6495;51.808;7.478;2023-06-26T10:40:43;26.10;95.20
12853;DHT22;6495;51.808;7.478;2023-06-26T10:43:14;26.10;95.30
12853;DHT22;6495;51.808;7.478;2023-06-26T10:45:45;26.10;95.30
12853;DHT22;6495;51.808;7.478;2023-06-26T10:48:35;26.20;95.20
12853;DHT22;6495;51.808;7.478;2023-06-26T10:51:37;26.30;95.20
12853;DHT22;6495;51.808;7.478;2023-06-26T10:54:14;26.40;95.00
12853;DHT22;6495;51.808;7.478;2023-06-26T10:56:58;26.50;94.30
12853;DHT22;6495;51.808;7.478;2023-06-26T10:59:28;26.50;93.90
12853;DHT22;6495;51.808;7.478;2023-06-26T11:01:59;26.50;94.00
12853;DHT22;6495;51.808;7.478;2023-06-26T11:04:39;26.60;93.90
12853;DHT22;6495;51.808;7.478;2023-06-26T11:07:16;26.70;93.50
12853;DHT22;6495;51.808;7.478;2023-06-26T11:10:00;26.80;93.30
12853;DHT22;6495;51.808;7.478;2023-06-26T11:13:05;26.80;92.30
12853;DHT22;6495;51.808;7.478;2023-06-26T11:15:49;26.90;91.60
12853;DHT22;6495;51.808;7.478;2023-06-26T11:18:38;26.90;92.10
12853;DHT22;6495;51.808;7.478;2023-06-26T11:21:26;26.90;92.40
12853;DHT22;6495;51.808;7.478;2023-06-26T11:23:56;26.80;92.00
12853;DHT22;6495;51.808;7.478;2023-06-26T11:26:29;26.90;91.90
12853;DHT22;6495;51.808;7.478;2023-06-26T11:28:58;26.80;91.60
12853;DHT22;6495;51.808;7.478;2023-06-26T11:31:27;26.70;91.70
12853;DHT22;6495;51.808;7.478;2023-06-26T11:34:00;26.60;91.60
12853;DHT22;6495;51.808;7.478;2023-06-26T11:36:31;26.50;91.40
12853;DHT22;6495;51.808;7.478;2023-06-26T11:39:09;26.50;91.40
12853;DHT22;6495;51.808;7.478;2023-06-26T11:41:41;26.50;90.90
12853;DHT22;6495;51.808;7.478;2023-06-26T11:44:12;26.40;91.20
12853;DHT22;6495;51.808;7.478;2023-06-26T11:46:55;26.40;90.30
12853;DHT22;6495;51.808;7.478;2023-06-26T11:49:32;26.40;89.90
12853;DHT22;6495;51.808;7.478;2023-06-26T11:52:11;26.30;90.20
12853;DHT22;6495;51.808;7.478;2023-06-26T11:54:40;26.30;88.60
12853;DHT22;6495;51.808;7.478;2023-06-26T11:57:13;26.30;89.70
12853;DHT22;6495;51.808;7.478;2023-06-26T11:59:43;26.20;89.60
12853;DHT22;6495;51.808;7.478;2023-06-26T12:02:13;26.30;89.80
12853;DHT22;6495;51.808;7.478;2023-06-26T12:04:44;26.40;89.80
12853;DHT22;6495;51.808;7.478;2023-06-26T12:07:13;26.30;88.80
12853;DHT22;6495;51.808;7.478;2023-06-26T12:09:44;26.40;89.50
12853;DHT22;6495;51.808;7.478;2023-06-26T12:12:18;26.50;89.20
12853;DHT22;6495;51.808;7.478;2023-06-26T12:14:47;26.50;88.80
12853;DHT22;6495;51.808;7.478;2023-06-26T12:17:23;26.60;89.00
12853;DHT22;6495;51.808;7.478;2023-06-26T12:19:52;26.60;87.80
12853;DHT22;6495;51.808;7.478;2023-06-26T12:22:48;26.60;87.50
12853;DHT22;6495;51.808;7.478;2023-06-26T12:25:26;26.60;85.20
12853;DHT22;6495;51.808;7.478;2023-06-26T12:27:56;26.60;85.60
12853;DHT22;6495;51.808;7.478;2023-06-26T12:30:29;26.60;86.10
12853;DHT22;6495;51.808;7.478;2023-06-26T12:33:13;26.60;85.80
12853;DHT22;6495;51.808;7.478;2023-06-26T12:35:47;26.60;85.30
12853;DHT22;6495;51.808;7.478;2023-06-26T12:38:20;26.60;85.00
12853;DHT22;6495;51.808;7.478;2023-06-26T12:40:58;26.60;85.40
12853;DHT22;6495;51.808;7.478;2023-06-26T12:43:33;26.70;82.90
12853;DHT22;6495;51.808;7.478;2023-06-26T12:46:13;26.70;79.60
12853;DHT22;6495;51.808;7.478;2023-06-26T12:48:49;26.60;81.20
12853;DHT22;6495;51.808;7.478;2023-06-26T12:51:25;26.70;79.70
12853;DHT22;6495;51.808;7.478;2023-06-26T12:54:04;26.70;78.80
12853;DHT22;6495;51.808;7.478;2023-06-26T12:56:33;26.70;77.90
12853;DHT22;6495;51.808;7.478;2023-06-26T12:59:11;26.70;78.70
12853;DHT22;6495;51.808;7.478;2023-06-26T13:01:52;26.70;78.10
12853;DHT22;6495;51.808;7.478;2023-06-26T13:04:24;26.80;78.10
12853;DHT22;6495;51.808;7.478;2023-06-26T13:07:05;26.80;78.50
12853;DHT22;6495;51.808;7.478;2023-06-26T13:09:37;26.80;77.70
12853;DHT22;6495;51.808;7.478;2023-06-26T13:12:08;26.80;78.00
12853;DHT22;6495;51.808;7.478;2023-06-26T13:14:38;26.80;76.40
12853;DHT22;6495;51.808;7.478;2023-06-26T13:17:08;26.90;76.10
12853;DHT22;6495;51.808;7.478;2023-06-26T13:19:36;26.90;75.50
12853;DHT22;6495;51.808;7.478;2023-06-26T13:22:05;26.90;75.60
12853;DHT22;6495;51.808;7.478;2023-06-26T13:24:34;26.80;75.90
12853;DHT22;6495;51.808;7.478;2023-06-26T13:27:02;26.80;75.70
12853;DHT22;6495;51.808;7.478;2023-06-26T13:29:31;26.80;75.30
12853;DHT22;6495;51.808;7.478;2023-06-26T13:32:01;26.70;74.20
12853;DHT22;6495;51.808;7.478;2023-06-26T13:34:30;26.70;74.30
12853;DHT22;6495;51.808;7.478;2023-06-26T13:36:58;26.60;74.20
12853;DHT22;6495;51.808;7.478;2023-06-26T13:39:27;26.60;74.70
12853;DHT22;6495;51.808;7.478;2023-06-26T13:41:56;26.60;74.80
12853;DHT22;6495;51.808;7.478;2023-06-26T13:44:24;26.70;74.70
12853;DHT22;6495;51.808;7.478;2023-06-26T13:47:13;26.70;74.60
12853;DHT22;6495;51.808;7.478;2023-06-26T13:49:42;26.80;74.80
12853;DHT22;6495;51.808;7.478;2023-06-26T13:52:10;26.80;73.90
12853;DHT22;6495;51.808;7.478;2023-06-26T13:54:38;26.80;73.70
12853;DHT22;6495;51.808;7.478;2023-06-26T13:57:07;26.70;73.10
12853;DHT22;6495;51.808;7.478;2023-06-26T13:59:37;26.70;72.40
12853;DHT22;6495;51.808;7.478;2023-06-26T14:02:13;26.70;71.30
12853;DHT22;6495;51.808;7.478;2023-06-26T14:04:41;26.60;71.30
12853;DHT22;6495;51.808;7.478;2023-06-26T14:07:10;26.60;72.10
12853;DHT22;6495;51.808;7.478;2023-06-26T14:09:38;26.60;70.90
12853;DHT22;6495;51.808;7.478;2023-06-26T14:12:08;26.60;71.00
12853;DHT22;6495;51.808;7.478;2023-06-26T14:14:36;26.60;71.20
12853;DHT22;6495;51.808;7.478;2023-06-26T14:17:05;26.50;70.90
12853;DHT22;6495;51.808;7.478;2023-06-26T14:19:37;26.50;71.50
12853;DHT22;6495;51.808;7.478;2023-06-26T14:22:07;26.50;72.00
12853;DHT22;6495;51.808;7.478;2023-06-26T14:24:38;26.50;71.90
12853;DHT22;6495;51.808;7.478;2023-06-26T14:27:06;26.50;71.70
12853;DHT22;6495;51.808;7.478;2023-06-26T14:29:35;26.40;71.90
12853;DHT22;6495;51.808;7.478;2023-06-26T14:32:05;26.40;72.40
12853;DHT22;6495;51.808;7.478;2023-06-26T14:34:34;26.40;71.10
12853;DHT22;6495;51.808;7.478;2023-06-26T14:37:05;26.40;71.30
12853;DHT22;6495;51.808;7.478;2023-06-26T14:39:33;26.40;70.50
12853;DHT22;6495;51.808;7.478;2023-06-26T14:42:02;26.40;70.40
12853;DHT22;6495;51.808;7.478;2023-06-26T14:44:31;26.30;70.20
12853;DHT22;6495;51.808;7.478;2023-06-26T14:47:00;26.40;70.30
12853;DHT22;6495;51.808;7.478;2023-06-26T14:49:28;26.40;70.00
12853;DHT22;6495;51.808;7.478;2023-06-26T14:51:57;26.40;69.90
12853;DHT22;6495;51.808;7.478;2023-06-26T14:54:27;26.40;70.20
12853;DHT22;6495;51.808;7.478;2023-06-26T14:56:55;26.40;70.50
12853;DHT22;6495;51.808;7.478;2023-06-26T14:59:23;26.40;69.90
12853;DHT22;6495;51.808;7.478;2023-06-26T15:01:52;26.40;69.50
12853;DHT22;6495;51.808;7.478;2023-06-26T15:04:20;26.40;69.80
12853;DHT22;6495;51.808;7.478;2023-06-26T15:06:49;26.40;69.50
12853;DHT22;6495;51.808;7.478;2023-06-26T15:09:17;26.40;69.70
12853;DHT22;6495;51.808;7.478;2023-06-26T15:11:47;26.40;69.30
12853;DHT22;6495;51.808;7.478;2023-06-26T15:14:15;26.30;68.60
12853;DHT22;6495;51.808;7.478;2023-06-26T15:16:45;26.30;68.50
12853;DHT22;6495;51.808;7.478;2023-06-26T15:19:15;26.30;68.30
12853;DHT22;6495;51.808;7.478;2023-06-26T15:21:43;26.20;69.30
12853;DHT22;6495;51.808;7.478;2023-06-26T15:24:11;26.30;69.70
12853;DHT22;6495;51.808;7.478;2023-06-26T15:26:40;26.40;69.50
12853;DHT22;6495;51.808;7.478;2023-06-26T15:29:09;26.40;69.40
12853;DHT22;6495;51.808;7.478;2023-06-26T15:31:38;26.40;68.60
12853;DHT22;6495;51.808;7.478;2023-06-26T15:34:06;26.40;68.90
12853;DHT22;6495;51.808;7.478;2023-06-26T15:36:34;26.50;68.90
12853;DHT22;6495;51.808;7.478;2023-06-26T15:39:03;26.50;68.60
12853;DHT22;6495;51.808;7.478;2023-06-26T15:41:31;26.50;68.10
12853;DHT22;6495;51.808;7.478;2023-06-26T15:44:00;26.50;68.30
12853;DHT22;6495;51.808;7.478;2023-06-26T15:46:30;26.50;68.10
12853;DHT22;6495;51.808;7.478;2023-06-26T15:48:58;26.40;67.40
12853;DHT22;6495;51.808;7.478;2023-06-26T15:51:27;26.30;66.80
12853;DHT22;6495;51.808;7.478;2023-06-26T15:53:55;26.20;66.70
12853;DHT22;6495;51.808;7.478;2023-06-26T15:56:26;26.20;66.50
12853;DHT22;6495;51.808;7.478;2023-06-26T15:58:55;26.10;65.90
12853;DHT22;6495;51.808;7.478;2023-06-26T16:01:23;26.10;65.90
12853;DHT22;6495;51.808;7.478;2023-06-26T16:03:54;26.00;65.70
12853;DHT22;6495;51.808;7.478;2023-06-26T16:06:22;25.90;65.60
12853;DHT22;6495;51.808;7.478;2023-06-26T16:08:53;25.80;65.80